Country
Station

 

Weather  for  Joplin, Joplin Regional Airport  -  United States    United States

  
22 °C (72 °F)
    
 
 

Current METAR for Joplin, Joplin Regional Airport is :

KJLN 171053Z 00000KT 10SM CLR 22/22 A3004 RMK AO2 SLP160 T02220217

 

This is a report for Joplin, Joplin Regional Airport - United States.
 
The report was made 24 minutes ago, at 10:53 UTC .
The wind was calm.
 
The temperature was 22 °C (72 °F), with a dew-point at 22 °C (72 °F).
The temperature felt like 18 °C (65 °F).
 
The atmospheric pressure was 1017 hPa (30.04 inHg).
The relative humidity was 100.0%.
 
The sky was clear.
 
The overall visibility was 16.1 kilometers (10.0 miles).
 

 
 
 
 

Country :   A   B   C   D   E   F   G   H   I   J   K   L   M   N   O   P   Q   R   S   T   U   V   W   Y   Z

 

Site Info  |  Disclaimer  |  Credits  |  Privacy
Contact us  |  Add to favorites
© 2013-2018 METARs - All rights reserved